sensor_id;sensor_type;location;lat;lon;timestamp;P1;durP1;ratioP1;P2;durP2;ratioP2
24801;SDS011;12898;50.520;12.152;2023-05-17T00:02:07;10.57;;;3.93;;
24801;SDS011;12898;50.520;12.152;2023-05-17T00:04:32;9.53;;;4.30;;
24801;SDS011;12898;50.520;12.152;2023-05-17T00:06:58;11.73;;;4.17;;
24801;SDS011;12898;50.520;12.152;2023-05-17T00:09:24;8.13;;;3.83;;
24801;SDS011;12898;50.520;12.152;2023-05-17T00:11:50;8.20;;;3.80;;
24801;SDS011;12898;50.520;12.152;2023-05-17T00:14:15;9.47;;;4.13;;
24801;SDS011;12898;50.520;12.152;2023-05-17T00:16:41;8.83;;;3.40;;
24801;SDS011;12898;50.520;12.152;2023-05-17T00:19:07;9.40;;;3.67;;
24801;SDS011;12898;50.520;12.152;2023-05-17T00:21:35;8.37;;;3.83;;
24801;SDS011;12898;50.520;12.152;2023-05-17T00:24:01;10.33;;;3.63;;
24801;SDS011;12898;50.520;12.152;2023-05-17T00:26:27;7.20;;;3.80;;
24801;SDS011;12898;50.520;12.152;2023-05-17T00:28:52;8.10;;;3.40;;
24801;SDS011;12898;50.520;12.152;2023-05-17T00:31:18;14.67;;;5.17;;
24801;SDS011;12898;50.520;12.152;2023-05-17T00:33:43;8.33;;;3.37;;
24801;SDS011;12898;50.520;12.152;2023-05-17T00:36:11;7.63;;;3.23;;
24801;SDS011;12898;50.520;12.152;2023-05-17T00:38:37;7.17;;;2.90;;
24801;SDS011;12898;50.520;12.152;2023-05-17T00:41:02;9.57;;;3.17;;
24801;SDS011;12898;50.520;12.152;2023-05-17T00:43:28;7.73;;;2.93;;
24801;SDS011;12898;50.520;12.152;2023-05-17T00:45:54;7.13;;;2.97;;
24801;SDS011;12898;50.520;12.152;2023-05-17T00:48:20;9.17;;;2.97;;
24801;SDS011;12898;50.520;12.152;2023-05-17T00:50:46;5.47;;;2.67;;
24801;SDS011;12898;50.520;12.152;2023-05-17T00:53:12;7.40;;;2.90;;
24801;SDS011;12898;50.520;12.152;2023-05-17T00:55:41;7.17;;;2.80;;
24801;SDS011;12898;50.520;12.152;2023-05-17T00:58:08;6.40;;;2.57;;
24801;SDS011;12898;50.520;12.152;2023-05-17T01:00:35;5.67;;;2.53;;
24801;SDS011;12898;50.520;12.152;2023-05-17T01:03:01;7.00;;;2.90;;
24801;SDS011;12898;50.520;12.152;2023-05-17T01:05:27;9.93;;;2.80;;
24801;SDS011;12898;50.520;12.152;2023-05-17T01:07:54;8.73;;;2.97;;
24801;SDS011;12898;50.520;12.152;2023-05-17T01:10:21;6.13;;;2.90;;
24801;SDS011;12898;50.520;12.152;2023-05-17T01:15:35;8.07;;;3.70;;
24801;SDS011;12898;50.520;12.152;2023-05-17T01:20:46;9.00;;;3.70;;
24801;SDS011;12898;50.520;12.152;2023-05-17T01:28:40;13.13;;;4.37;;
24801;SDS011;12898;50.520;12.152;2023-05-17T01:31:10;7.63;;;4.00;;
24801;SDS011;12898;50.520;12.152;2023-05-17T01:33:37;8.90;;;4.47;;
24801;SDS011;12898;50.520;12.152;2023-05-17T01:36:03;10.07;;;4.50;;
24801;SDS011;12898;50.520;12.152;2023-05-17T01:38:29;9.93;;;4.00;;
24801;SDS011;12898;50.520;12.152;2023-05-17T01:43:59;6.70;;;3.43;;
24801;SDS011;12898;50.520;12.152;2023-05-17T01:46:39;10.57;;;4.13;;
24801;SDS011;12898;50.520;12.152;2023-05-17T01:49:28;8.83;;;3.37;;
24801;SDS011;12898;50.520;12.152;2023-05-17T01:54:37;6.03;;;2.80;;
24801;SDS011;12898;50.520;12.152;2023-05-17T01:57:11;10.03;;;3.63;;
24801;SDS011;12898;50.520;12.152;2023-05-17T01:59:40;7.37;;;3.10;;
24801;SDS011;12898;50.520;12.152;2023-05-17T02:02:08;6.87;;;3.30;;
24801;SDS011;12898;50.520;12.152;2023-05-17T02:04:34;7.50;;;3.67;;
24801;SDS011;12898;50.520;12.152;2023-05-17T02:07:01;7.23;;;3.40;;
24801;SDS011;12898;50.520;12.152;2023-05-17T02:09:27;9.00;;;3.00;;
24801;SDS011;12898;50.520;12.152;2023-05-17T02:11:53;8.87;;;2.80;;
24801;SDS011;12898;50.520;12.152;2023-05-17T02:14:18;12.77;;;2.57;;
24801;SDS011;12898;50.520;12.152;2023-05-17T02:16:44;6.90;;;2.57;;
24801;SDS011;12898;50.520;12.152;2023-05-17T02:19:10;6.17;;;2.67;;
24801;SDS011;12898;50.520;12.152;2023-05-17T02:21:37;7.17;;;2.93;;
24801;SDS011;12898;50.520;12.152;2023-05-17T02:24:03;9.77;;;3.03;;
24801;SDS011;12898;50.520;12.152;2023-05-17T02:26:29;8.60;;;3.07;;
24801;SDS011;12898;50.520;12.152;2023-05-17T02:28:55;9.53;;;3.30;;
24801;SDS011;12898;50.520;12.152;2023-05-17T02:31:22;7.17;;;3.23;;
24801;SDS011;12898;50.520;12.152;2023-05-17T02:33:51;6.90;;;3.13;;
24801;SDS011;12898;50.520;12.152;2023-05-17T02:36:18;6.13;;;3.03;;
24801;SDS011;12898;50.520;12.152;2023-05-17T02:38:43;6.43;;;2.90;;
24801;SDS011;12898;50.520;12.152;2023-05-17T02:41:09;7.80;;;3.10;;
24801;SDS011;12898;50.520;12.152;2023-05-17T02:43:35;9.00;;;3.93;;
24801;SDS011;12898;50.520;12.152;2023-05-17T02:46:00;9.50;;;3.60;;
24801;SDS011;12898;50.520;12.152;2023-05-17T02:48:26;10.43;;;3.80;;
24801;SDS011;12898;50.520;12.152;2023-05-17T02:50:52;8.87;;;3.70;;
24801;SDS011;12898;50.520;12.152;2023-05-17T02:53:17;7.37;;;3.53;;
24801;SDS011;12898;50.520;12.152;2023-05-17T02:55:43;10.03;;;3.70;;
24801;SDS011;12898;50.520;12.152;2023-05-17T02:58:09;7.10;;;3.87;;
24801;SDS011;12898;50.520;12.152;2023-05-17T03:00:35;14.03;;;3.70;;
24801;SDS011;12898;50.520;12.152;2023-05-17T03:03:01;7.23;;;3.20;;
24801;SDS011;12898;50.520;12.152;2023-05-17T03:05:26;9.73;;;3.30;;
24801;SDS011;12898;50.520;12.152;2023-05-17T03:07:52;9.33;;;3.60;;
24801;SDS011;12898;50.520;12.152;2023-05-17T03:10:18;8.53;;;3.40;;
24801;SDS011;12898;50.520;12.152;2023-05-17T03:12:43;9.40;;;3.60;;
24801;SDS011;12898;50.520;12.152;2023-05-17T03:15:09;10.23;;;3.77;;
24801;SDS011;12898;50.520;12.152;2023-05-17T03:17:35;9.37;;;3.63;;
24801;SDS011;12898;50.520;12.152;2023-05-17T03:20:01;9.20;;;3.37;;
24801;SDS011;12898;50.520;12.152;2023-05-17T03:22:27;8.87;;;3.63;;
24801;SDS011;12898;50.520;12.152;2023-05-17T03:24:53;8.93;;;3.70;;
24801;SDS011;12898;50.520;12.152;2023-05-17T03:27:19;10.93;;;3.90;;
24801;SDS011;12898;50.520;12.152;2023-05-17T03:29:44;10.63;;;3.90;;
24801;SDS011;12898;50.520;12.152;2023-05-17T03:32:10;7.07;;;3.47;;
24801;SDS011;12898;50.520;12.152;2023-05-17T03:34:36;10.50;;;3.67;;
24801;SDS011;12898;50.520;12.152;2023-05-17T03:37:01;11.10;;;4.13;;
24801;SDS011;12898;50.520;12.152;2023-05-17T03:39:27;10.17;;;3.30;;
24801;SDS011;12898;50.520;12.152;2023-05-17T03:41:53;11.47;;;3.50;;
24801;SDS011;12898;50.520;12.152;2023-05-17T03:44:19;9.10;;;3.30;;
24801;SDS011;12898;50.520;12.152;2023-05-17T03:46:45;13.67;;;3.70;;
24801;SDS011;12898;50.520;12.152;2023-05-17T03:49:11;9.47;;;3.50;;
24801;SDS011;12898;50.520;12.152;2023-05-17T03:51:36;12.10;;;3.43;;
24801;SDS011;12898;50.520;12.152;2023-05-17T03:54:02;8.67;;;3.90;;
24801;SDS011;12898;50.520;12.152;2023-05-17T03:56:28;11.93;;;4.00;;
24801;SDS011;12898;50.520;12.152;2023-05-17T03:58:53;8.20;;;3.53;;
24801;SDS011;12898;50.520;12.152;2023-05-17T04:01:19;12.47;;;3.93;;
24801;SDS011;12898;50.520;12.152;2023-05-17T04:03:45;9.17;;;4.03;;
24801;SDS011;12898;50.520;12.152;2023-05-17T04:06:12;9.17;;;3.97;;
24801;SDS011;12898;50.520;12.152;2023-05-17T04:08:41;7.43;;;3.70;;
24801;SDS011;12898;50.520;12.152;2023-05-17T04:11:07;9.70;;;4.53;;
24801;SDS011;12898;50.520;12.152;2023-05-17T04:13:38;10.93;;;4.50;;
24801;SDS011;12898;50.520;12.152;2023-05-17T04:16:04;12.37;;;4.33;;
24801;SDS011;12898;50.520;12.152;2023-05-17T04:18:34;10.80;;;4.33;;
24801;SDS011;12898;50.520;12.152;2023-05-17T04:21:01;13.10;;;5.23;;
24801;SDS011;12898;50.520;12.152;2023-05-17T04:23:28;10.73;;;4.70;;
24801;SDS011;12898;50.520;12.152;2023-05-17T04:25:54;8.83;;;4.23;;
24801;SDS011;12898;50.520;12.152;2023-05-17T04:28:21;8.13;;;4.17;;
24801;SDS011;12898;50.520;12.152;2023-05-17T04:30:48;8.20;;;4.07;;
24801;SDS011;12898;50.520;12.152;2023-05-17T04:33:13;14.10;;;6.63;;
24801;SDS011;12898;50.520;12.152;2023-05-17T04:35:40;16.13;;;9.07;;
24801;SDS011;12898;50.520;12.152;2023-05-17T04:38:06;14.73;;;7.67;;
24801;SDS011;12898;50.520;12.152;2023-05-17T04:40:33;12.93;;;6.43;;
24801;SDS011;12898;50.520;12.152;2023-05-17T04:42:59;9.70;;;5.23;;
24801;SDS011;12898;50.520;12.152;2023-05-17T04:45:25;13.30;;;4.70;;
24801;SDS011;12898;50.520;12.152;2023-05-17T04:47:51;11.67;;;5.10;;
24801;SDS011;12898;50.520;12.152;2023-05-17T04:50:18;9.33;;;4.53;;
24801;SDS011;12898;50.520;12.152;2023-05-17T04:52:45;8.87;;;4.40;;
24801;SDS011;12898;50.520;12.152;2023-05-17T04:55:11;9.70;;;4.30;;
24801;SDS011;12898;50.520;12.152;2023-05-17T04:57:37;11.93;;;5.67;;
24801;SDS011;12898;50.520;12.152;2023-05-17T05:00:03;10.93;;;5.77;;
24801;SDS011;12898;50.520;12.152;2023-05-17T05:02:36;11.13;;;5.90;;
24801;SDS011;12898;50.520;12.152;2023-05-17T05:05:03;10.80;;;5.00;;
24801;SDS011;12898;50.520;12.152;2023-05-17T05:07:30;15.47;;;5.70;;
24801;SDS011;12898;50.520;12.152;2023-05-17T05:09:56;9.73;;;5.23;;
24801;SDS011;12898;50.520;12.152;2023-05-17T05:12:22;11.10;;;4.70;;
24801;SDS011;12898;50.520;12.152;2023-05-17T05:14:48;10.73;;;4.90;;
24801;SDS011;12898;50.520;12.152;2023-05-17T05:17:14;10.00;;;4.73;;
24801;SDS011;12898;50.520;12.152;2023-05-17T05:19:40;10.63;;;4.80;;
24801;SDS011;12898;50.520;12.152;2023-05-17T05:22:06;9.43;;;4.70;;
24801;SDS011;12898;50.520;12.152;2023-05-17T05:24:32;9.40;;;4.50;;
24801;SDS011;12898;50.520;12.152;2023-05-17T05:26:57;12.33;;;5.20;;
24801;SDS011;12898;50.520;12.152;2023-05-17T05:29:23;10.20;;;4.93;;
24801;SDS011;12898;50.520;12.152;2023-05-17T05:31:49;11.27;;;4.97;;
24801;SDS011;12898;50.520;12.152;2023-05-17T05:34:15;12.40;;;4.90;;
24801;SDS011;12898;50.520;12.152;2023-05-17T05:36:40;10.63;;;4.87;;
24801;SDS011;12898;50.520;12.152;2023-05-17T05:39:06;12.70;;;5.10;;
24801;SDS011;12898;50.520;12.152;2023-05-17T05:41:32;15.53;;;4.73;;
24801;SDS011;12898;50.520;12.152;2023-05-17T05:43:57;13.87;;;4.80;;
24801;SDS011;12898;50.520;12.152;2023-05-17T05:46:24;15.13;;;5.40;;
24801;SDS011;12898;50.520;12.152;2023-05-17T05:48:50;12.13;;;5.17;;
24801;SDS011;12898;50.520;12.152;2023-05-17T05:51:16;12.97;;;4.67;;
24801;SDS011;12898;50.520;12.152;2023-05-17T05:53:43;9.73;;;3.93;;
24801;SDS011;12898;50.520;12.152;2023-05-17T05:56:09;9.33;;;4.83;;
24801;SDS011;12898;50.520;12.152;2023-05-17T05:58:35;11.47;;;4.27;;
24801;SDS011;12898;50.520;12.152;2023-05-17T06:01:00;10.83;;;3.83;;
24801;SDS011;12898;50.520;12.152;2023-05-17T06:03:26;11.03;;;4.47;;
24801;SDS011;12898;50.520;12.152;2023-05-17T06:05:52;14.40;;;5.37;;
24801;SDS011;12898;50.520;12.152;2023-05-17T06:08:18;13.83;;;4.40;;
24801;SDS011;12898;50.520;12.152;2023-05-17T06:10:44;11.83;;;4.33;;
24801;SDS011;12898;50.520;12.152;2023-05-17T06:13:10;10.13;;;4.57;;
24801;SDS011;12898;50.520;12.152;2023-05-17T06:15:36;9.40;;;3.80;;
24801;SDS011;12898;50.520;12.152;2023-05-17T06:18:01;12.07;;;4.70;;
24801;SDS011;12898;50.520;12.152;2023-05-17T06:20:27;13.53;;;6.20;;
24801;SDS011;12898;50.520;12.152;2023-05-17T06:22:53;14.23;;;6.00;;
24801;SDS011;12898;50.520;12.152;2023-05-17T06:25:18;13.63;;;6.97;;
24801;SDS011;12898;50.520;12.152;2023-05-17T06:27:44;13.57;;;4.90;;
24801;SDS011;12898;50.520;12.152;2023-05-17T06:30:10;12.20;;;4.10;;
24801;SDS011;12898;50.520;12.152;2023-05-17T06:32:36;14.13;;;4.27;;
24801;SDS011;12898;50.520;12.152;2023-05-17T06:35:02;15.50;;;4.40;;
24801;SDS011;12898;50.520;12.152;2023-05-17T06:37:28;12.40;;;4.47;;
24801;SDS011;12898;50.520;12.152;2023-05-17T06:40:00;10.73;;;4.07;;
24801;SDS011;12898;50.520;12.152;2023-05-17T06:42:31;13.23;;;5.30;;
24801;SDS011;12898;50.520;12.152;2023-05-17T06:44:57;14.13;;;4.25;;
24801;SDS011;12898;50.520;12.152;2023-05-17T06:47:23;11.57;;;4.40;;
24801;SDS011;12898;50.520;12.152;2023-05-17T06:49:49;13.75;;;4.32;;
24801;SDS011;12898;50.520;12.152;2023-05-17T06:52:15;9.43;;;4.07;;
24801;SDS011;12898;50.520;12.152;2023-05-17T06:54:40;14.35;;;4.18;;
24801;SDS011;12898;50.520;12.152;2023-05-17T06:57:06;10.73;;;4.32;;
24801;SDS011;12898;50.520;12.152;2023-05-17T06:59:33;12.80;;;3.95;;
24801;SDS011;12898;50.520;12.152;2023-05-17T07:02:00;13.75;;;5.10;;
24801;SDS011;12898;50.520;12.152;2023-05-17T07:04:26;9.43;;;3.47;;
24801;SDS011;12898;50.520;12.152;2023-05-17T07:06:52;13.52;;;4.38;;
24801;SDS011;12898;50.520;12.152;2023-05-17T07:09:18;11.02;;;4.20;;
24801;SDS011;12898;50.520;12.152;2023-05-17T07:11:45;9.23;;;4.35;;
24801;SDS011;12898;50.520;12.152;2023-05-17T07:14:11;12.88;;;4.50;;
24801;SDS011;12898;50.520;12.152;2023-05-17T07:16:37;13.07;;;4.50;;
24801;SDS011;12898;50.520;12.152;2023-05-17T07:19:03;17.50;;;4.05;;
24801;SDS011;12898;50.520;12.152;2023-05-17T07:21:29;13.98;;;3.97;;
24801;SDS011;12898;50.520;12.152;2023-05-17T07:23:55;17.45;;;4.20;;
24801;SDS011;12898;50.520;12.152;2023-05-17T07:26:21;13.02;;;3.70;;
24801;SDS011;12898;50.520;12.152;2023-05-17T07:28:47;11.82;;;4.05;;
24801;SDS011;12898;50.520;12.152;2023-05-17T07:31:13;14.55;;;4.43;;
24801;SDS011;12898;50.520;12.152;2023-05-17T07:33:38;9.95;;;3.65;;
24801;SDS011;12898;50.520;12.152;2023-05-17T07:36:04;15.00;;;4.82;;
24801;SDS011;12898;50.520;12.152;2023-05-17T07:38:31;8.98;;;3.42;;
24801;SDS011;12898;50.520;12.152;2023-05-17T07:40:59;8.27;;;3.60;;
24801;SDS011;12898;50.520;12.152;2023-05-17T07:43:25;11.98;;;3.50;;
24801;SDS011;12898;50.520;12.152;2023-05-17T07:45:51;11.32;;;3.20;;
24801;SDS011;12898;50.520;12.152;2023-05-17T07:48:16;8.98;;;3.40;;
24801;SDS011;12898;50.520;12.152;2023-05-17T07:50:42;12.73;;;3.60;;
24801;SDS011;12898;50.520;12.152;2023-05-17T07:53:08;13.95;;;3.67;;
24801;SDS011;12898;50.520;12.152;2023-05-17T07:55:34;13.75;;;4.20;;
24801;SDS011;12898;50.520;12.152;2023-05-17T07:58:00;11.10;;;3.50;;
24801;SDS011;12898;50.520;12.152;2023-05-17T08:00:26;9.20;;;3.20;;
24801;SDS011;12898;50.520;12.152;2023-05-17T08:02:51;10.02;;;3.25;;
24801;SDS011;12898;50.520;12.152;2023-05-17T08:05:17;12.95;;;3.50;;
24801;SDS011;12898;50.520;12.152;2023-05-17T08:07:43;10.13;;;3.55;;
24801;SDS011;12898;50.520;12.152;2023-05-17T08:10:08;9.55;;;3.75;;
24801;SDS011;12898;50.520;12.152;2023-05-17T08:12:35;9.70;;;3.22;;
24801;SDS011;12898;50.520;12.152;2023-05-17T08:15:01;8.73;;;3.20;;
24801;SDS011;12898;50.520;12.152;2023-05-17T08:17:26;12.25;;;3.63;;
24801;SDS011;12898;50.520;12.152;2023-05-17T08:19:52;11.55;;;3.47;;
24801;SDS011;12898;50.520;12.152;2023-05-17T08:22:18;12.50;;;3.40;;
24801;SDS011;12898;50.520;12.152;2023-05-17T08:24:43;10.38;;;3.30;;
24801;SDS011;12898;50.520;12.152;2023-05-17T08:27:09;9.05;;;3.42;;
24801;SDS011;12898;50.520;12.152;2023-05-17T08:29:35;8.25;;;3.30;;
24801;SDS011;12898;50.520;12.152;2023-05-17T08:32:01;11.85;;;3.67;;
24801;SDS011;12898;50.520;12.152;2023-05-17T08:34:27;12.75;;;3.65;;
24801;SDS011;12898;50.520;12.152;2023-05-17T08:36:53;11.88;;;4.20;;
24801;SDS011;12898;50.520;12.152;2023-05-17T08:39:19;12.27;;;3.58;;
24801;SDS011;12898;50.520;12.152;2023-05-17T08:41:46;13.32;;;3.58;;
24801;SDS011;12898;50.520;12.152;2023-05-17T08:44:12;10.35;;;3.67;;
24801;SDS011;12898;50.520;12.152;2023-05-17T08:46:43;11.38;;;3.67;;
24801;SDS011;12898;50.520;12.152;2023-05-17T08:49:08;13.88;;;4.40;;
24801;SDS011;12898;50.520;12.152;2023-05-17T08:51:39;11.98;;;3.85;;
24801;SDS011;12898;50.520;12.152;2023-05-17T08:54:06;12.43;;;4.15;;
24801;SDS011;12898;50.520;12.152;2023-05-17T08:56:32;10.25;;;3.47;;
24801;SDS011;12898;50.520;12.152;2023-05-17T08:59:00;10.68;;;3.55;;
24801;SDS011;12898;50.520;12.152;2023-05-17T09:01:27;8.45;;;3.60;;
24801;SDS011;12898;50.520;12.152;2023-05-17T09:03:54;8.30;;;3.20;;
24801;SDS011;12898;50.520;12.152;2023-05-17T09:06:20;9.43;;;3.95;;
24801;SDS011;12898;50.520;12.152;2023-05-17T09:08:49;13.75;;;4.32;;
24801;SDS011;12898;50.520;12.152;2023-05-17T09:11:26;14.43;;;5.55;;
24801;SDS011;12898;50.520;12.152;2023-05-17T09:14:04;16.23;;;4.68;;
24801;SDS011;12898;50.520;12.152;2023-05-17T09:16:31;12.60;;;4.93;;
24801;SDS011;12898;50.520;12.152;2023-05-17T09:18:59;15.95;;;5.95;;
24801;SDS011;12898;50.520;12.152;2023-05-17T09:21:25;9.00;;;4.40;;
24801;SDS011;12898;50.520;12.152;2023-05-17T09:23:53;10.27;;;3.80;;
24801;SDS011;12898;50.520;12.152;2023-05-17T09:26:20;10.82;;;3.97;;
24801;SDS011;12898;50.520;12.152;2023-05-17T09:28:46;10.02;;;3.92;;
24801;SDS011;12898;50.520;12.152;2023-05-17T09:31:14;12.52;;;3.78;;
24801;SDS011;12898;50.520;12.152;2023-05-17T09:33:48;9.10;;;3.58;;
24801;SDS011;12898;50.520;12.152;2023-05-17T09:36:23;9.80;;;3.33;;
24801;SDS011;12898;50.520;12.152;2023-05-17T09:38:53;9.43;;;3.90;;
24801;SDS011;12898;50.520;12.152;2023-05-17T09:41:28;9.30;;;3.50;;
24801;SDS011;12898;50.520;12.152;2023-05-17T09:44:09;10.25;;;3.65;;
24801;SDS011;12898;50.520;12.152;2023-05-17T09:46:36;14.98;;;4.20;;
24801;SDS011;12898;50.520;12.152;2023-05-17T09:49:06;10.20;;;4.00;;
24801;SDS011;12898;50.520;12.152;2023-05-17T09:51:39;12.60;;;4.35;;
24801;SDS011;12898;50.520;12.152;2023-05-17T09:54:09;12.35;;;3.55;;
24801;SDS011;12898;50.520;12.152;2023-05-17T09:56:35;11.98;;;4.30;;
24801;SDS011;12898;50.520;12.152;2023-05-17T09:59:02;11.43;;;3.72;;
24801;SDS011;12898;50.520;12.152;2023-05-17T10:01:35;9.88;;;3.70;;
24801;SDS011;12898;50.520;12.152;2023-05-17T10:04:05;15.50;;;4.07;;
24801;SDS011;12898;50.520;12.152;2023-05-17T10:06:36;11.50;;;3.60;;
24801;SDS011;12898;50.520;12.152;2023-05-17T10:09:05;10.93;;;4.05;;
24801;SDS011;12898;50.520;12.152;2023-05-17T10:11:34;15.10;;;5.00;;
24801;SDS011;12898;50.520;12.152;2023-05-17T10:14:06;10.50;;;4.00;;
24801;SDS011;12898;50.520;12.152;2023-05-17T10:16:48;16.45;;;4.70;;
24801;SDS011;12898;50.520;12.152;2023-05-17T10:19:15;11.48;;;4.60;;
24801;SDS011;12898;50.520;12.152;2023-05-17T10:21:43;12.90;;;4.97;;
24801;SDS011;12898;50.520;12.152;2023-05-17T10:24:11;12.27;;;4.55;;
24801;SDS011;12898;50.520;12.152;2023-05-17T10:26:38;14.32;;;4.97;;
24801;SDS011;12898;50.520;12.152;2023-05-17T10:29:05;10.88;;;3.92;;
24801;SDS011;12898;50.520;12.152;2023-05-17T10:31:32;11.60;;;4.13;;
24801;SDS011;12898;50.520;12.152;2023-05-17T10:34:02;18.23;;;4.35;;
24801;SDS011;12898;50.520;12.152;2023-05-17T10:36:32;12.10;;;4.70;;
24801;SDS011;12898;50.520;12.152;2023-05-17T10:38:58;14.68;;;4.65;;
24801;SDS011;12898;50.520;12.152;2023-05-17T10:41:31;10.60;;;3.90;;
24801;SDS011;12898;50.520;12.152;2023-05-17T10:44:01;10.50;;;3.97;;
24801;SDS011;12898;50.520;12.152;2023-05-17T10:46:29;12.52;;;4.57;;
24801;SDS011;12898;50.520;12.152;2023-05-17T10:48:56;10.38;;;4.13;;
24801;SDS011;12898;50.520;12.152;2023-05-17T10:51:35;10.02;;;3.78;;
24801;SDS011;12898;50.520;12.152;2023-05-17T10:54:07;11.73;;;3.80;;
24801;SDS011;12898;50.520;12.152;2023-05-17T10:56:49;11.07;;;4.13;;
24801;SDS011;12898;50.520;12.152;2023-05-17T10:59:17;12.60;;;4.32;;
24801;SDS011;12898;50.520;12.152;2023-05-17T11:02:06;11.68;;;3.80;;
24801;SDS011;12898;50.520;12.152;2023-05-17T11:04:37;14.98;;;4.53;;
24801;SDS011;12898;50.520;12.152;2023-05-17T11:09:48;12.23;;;4.18;;
24801;SDS011;12898;50.520;12.152;2023-05-17T11:12:27;10.70;;;3.78;;
24801;SDS011;12898;50.520;12.152;2023-05-17T11:14:56;14.65;;;4.13;;
24801;SDS011;12898;50.520;12.152;2023-05-17T11:17:23;13.00;;;4.25;;
24801;SDS011;12898;50.520;12.152;2023-05-17T11:22:39;12.27;;;4.03;;
24801;SDS011;12898;50.520;12.152;2023-05-17T11:25:07;10.20;;;4.25;;
24801;SDS011;12898;50.520;12.152;2023-05-17T11:27:37;13.68;;;4.88;;
24801;SDS011;12898;50.520;12.152;2023-05-17T11:30:07;10.77;;;4.78;;
24801;SDS011;12898;50.520;12.152;2023-05-17T11:35:29;12.40;;;3.97;;
24801;SDS011;12898;50.520;12.152;2023-05-17T11:38:39;11.73;;;4.00;;
24801;SDS011;12898;50.520;12.152;2023-05-17T11:40:47;12.63;;;4.30;;
24801;SDS011;12898;50.520;12.152;2023-05-17T11:43:23;11.93;;;3.97;;
24801;SDS011;12898;50.520;12.152;2023-05-17T11:45:52;13.75;;;4.65;;
24801;SDS011;12898;50.520;12.152;2023-05-17T11:48:21;10.55;;;3.90;;
24801;SDS011;12898;50.520;12.152;2023-05-17T11:50:48;13.80;;;4.47;;
24801;SDS011;12898;50.520;12.152;2023-05-17T11:53:15;13.57;;;4.07;;
24801;SDS011;12898;50.520;12.152;2023-05-17T11:55:42;11.15;;;4.82;;
24801;SDS011;12898;50.520;12.152;2023-05-17T11:58:12;11.13;;;4.13;;
24801;SDS011;12898;50.520;12.152;2023-05-17T12:00:41;9.80;;;3.97;;
24801;SDS011;12898;50.520;12.152;2023-05-17T12:03:20;10.18;;;4.03;;
24801;SDS011;12898;50.520;12.152;2023-05-17T12:05:48;12.05;;;3.72;;
24801;SDS011;12898;50.520;12.152;2023-05-17T12:08:16;9.60;;;3.58;;
24801;SDS011;12898;50.520;12.152;2023-05-17T12:10:43;14.00;;;4.30;;
24801;SDS011;12898;50.520;12.152;2023-05-17T12:13:13;15.57;;;4.82;;
24801;SDS011;12898;50.520;12.152;2023-05-17T12:15:39;10.27;;;4.00;;
24801;SDS011;12898;50.520;12.152;2023-05-17T12:18:08;10.98;;;3.45;;
24801;SDS011;12898;50.520;12.152;2023-05-17T12:20:33;7.95;;;3.88;;
24801;SDS011;12898;50.520;12.152;2023-05-17T12:23:01;10.43;;;3.78;;
24801;SDS011;12898;50.520;12.152;2023-05-17T12:25:27;9.77;;;3.67;;
24801;SDS011;12898;50.520;12.152;2023-05-17T12:28:11;11.05;;;3.78;;
24801;SDS011;12898;50.520;12.152;2023-05-17T12:30:38;13.70;;;4.65;;
24801;SDS011;12898;50.520;12.152;2023-05-17T12:33:04;9.38;;;3.63;;
24801;SDS011;12898;50.520;12.152;2023-05-17T12:35:30;10.10;;;3.97;;
24801;SDS011;12898;50.520;12.152;2023-05-17T12:37:56;13.02;;;4.63;;
24801;SDS011;12898;50.520;12.152;2023-05-17T12:40:22;9.93;;;4.03;;
24801;SDS011;12898;50.520;12.152;2023-05-17T12:42:48;9.05;;;3.83;;
24801;SDS011;12898;50.520;12.152;2023-05-17T12:45:13;24.13;;;5.18;;
24801;SDS011;12898;50.520;12.152;2023-05-17T12:47:39;12.95;;;4.40;;
24801;SDS011;12898;50.520;12.152;2023-05-17T12:50:05;15.27;;;4.45;;
24801;SDS011;12898;50.520;12.152;2023-05-17T12:52:34;10.80;;;4.05;;
24801;SDS011;12898;50.520;12.152;2023-05-17T12:55:03;14.18;;;4.57;;
24801;SDS011;12898;50.520;12.152;2023-05-17T12:57:29;11.40;;;4.18;;
24801;SDS011;12898;50.520;12.152;2023-05-17T12:59:55;16.85;;;4.72;;
24801;SDS011;12898;50.520;12.152;2023-05-17T13:02:21;11.35;;;3.80;;
24801;SDS011;12898;50.520;12.152;2023-05-17T13:04:47;8.18;;;3.42;;
24801;SDS011;12898;50.520;12.152;2023-05-17T13:07:23;9.70;;;3.60;;
24801;SDS011;12898;50.520;12.152;2023-05-17T13:09:49;14.90;;;3.95;;
24801;SDS011;12898;50.520;12.152;2023-05-17T13:12:19;14.05;;;3.85;;
24801;SDS011;12898;50.520;12.152;2023-05-17T13:14:48;9.55;;;3.65;;
24801;SDS011;12898;50.520;12.152;2023-05-17T13:17:25;10.77;;;4.05;;
24801;SDS011;12898;50.520;12.152;2023-05-17T13:19:59;11.90;;;4.15;;
24801;SDS011;12898;50.520;12.152;2023-05-17T13:22:25;11.10;;;3.78;;
24801;SDS011;12898;50.520;12.152;2023-05-17T13:24:51;13.70;;;4.28;;
24801;SDS011;12898;50.520;12.152;2023-05-17T13:27:18;11.93;;;4.22;;
24801;SDS011;12898;50.520;12.152;2023-05-17T13:29:44;10.25;;;4.13;;
24801;SDS011;12898;50.520;12.152;2023-05-17T13:32:10;9.55;;;4.10;;
24801;SDS011;12898;50.520;12.152;2023-05-17T13:34:37;13.25;;;4.88;;
24801;SDS011;12898;50.520;12.152;2023-05-17T13:37:04;11.05;;;4.07;;
24801;SDS011;12898;50.520;12.152;2023-05-17T13:39:31;9.95;;;4.10;;
24801;SDS011;12898;50.520;12.152;2023-05-17T13:41:57;11.73;;;4.70;;
24801;SDS011;12898;50.520;12.152;2023-05-17T13:44:24;10.32;;;3.85;;
24801;SDS011;12898;50.520;12.152;2023-05-17T13:46:49;10.00;;;3.90;;
24801;SDS011;12898;50.520;12.152;2023-05-17T13:49:15;12.98;;;5.10;;
24801;SDS011;12898;50.520;12.152;2023-05-17T13:51:41;10.95;;;3.67;;
24801;SDS011;12898;50.520;12.152;2023-05-17T13:54:07;11.00;;;3.85;;
24801;SDS011;12898;50.520;12.152;2023-05-17T13:56:34;12.63;;;4.00;;
24801;SDS011;12898;50.520;12.152;2023-05-17T13:58:59;15.95;;;4.22;;
24801;SDS011;12898;50.520;12.152;2023-05-17T14:01:25;9.38;;;3.85;;
24801;SDS011;12898;50.520;12.152;2023-05-17T14:03:51;13.02;;;3.95;;
24801;SDS011;12898;50.520;12.152;2023-05-17T14:06:18;14.38;;;3.35;;
24801;SDS011;12898;50.520;12.152;2023-05-17T14:08:44;7.10;;;3.03;;
24801;SDS011;12898;50.520;12.152;2023-05-17T14:11:10;12.40;;;3.70;;
24801;SDS011;12898;50.520;12.152;2023-05-17T14:13:36;12.80;;;3.45;;
24801;SDS011;12898;50.520;12.152;2023-05-17T14:16:01;12.73;;;3.25;;
24801;SDS011;12898;50.520;12.152;2023-05-17T14:18:27;10.35;;;3.08;;
24801;SDS011;12898;50.520;12.152;2023-05-17T14:20:53;9.63;;;3.78;;
24801;SDS011;12898;50.520;12.152;2023-05-17T14:23:18;10.43;;;3.42;;
24801;SDS011;12898;50.520;12.152;2023-05-17T14:25:45;9.80;;;3.45;;
24801;SDS011;12898;50.520;12.152;2023-05-17T14:28:12;12.77;;;3.72;;
24801;SDS011;12898;50.520;12.152;2023-05-17T14:30:39;11.23;;;3.60;;
24801;SDS011;12898;50.520;12.152;2023-05-17T14:33:04;8.48;;;3.25;;
24801;SDS011;12898;50.520;12.152;2023-05-17T14:35:30;9.73;;;3.03;;
24801;SDS011;12898;50.520;12.152;2023-05-17T14:37:56;12.75;;;4.00;;
24801;SDS011;12898;50.520;12.152;2023-05-17T14:40:21;10.98;;;3.25;;
24801;SDS011;12898;50.520;12.152;2023-05-17T14:42:48;11.57;;;3.47;;
24801;SDS011;12898;50.520;12.152;2023-05-17T14:45:13;10.30;;;3.65;;
24801;SDS011;12898;50.520;12.152;2023-05-17T14:47:39;10.23;;;3.40;;
24801;SDS011;12898;50.520;12.152;2023-05-17T14:50:04;8.23;;;3.35;;
24801;SDS011;12898;50.520;12.152;2023-05-17T14:52:31;11.75;;;3.35;;